sensor_id;sensor_type;location;lat;lon;timestamp;temperature;humidity
12901;DHT22;6518;50.930;5.344;2023-02-11T00:00:31;6.90;99.90
12901;DHT22;6518;50.930;5.344;2023-02-11T00:02:58;6.90;99.90
12901;DHT22;6518;50.930;5.344;2023-02-11T00:05:25;6.90;99.90
12901;DHT22;6518;50.930;5.344;2023-02-11T00:07:52;6.90;99.90
12901;DHT22;6518;50.930;5.344;2023-02-11T00:10:19;6.90;99.90
12901;DHT22;6518;50.930;5.344;2023-02-11T00:12:47;6.90;99.90
12901;DHT22;6518;50.930;5.344;2023-02-11T00:15:14;6.80;99.90
12901;DHT22;6518;50.930;5.344;2023-02-11T00:17:40;6.80;99.90
12901;DHT22;6518;50.930;5.344;2023-02-11T00:20:08;6.80;99.90
12901;DHT22;6518;50.930;5.344;2023-02-11T00:22:35;6.90;99.90
12901;DHT22;6518;50.930;5.344;2023-02-11T00:25:02;6.80;99.90
12901;DHT22;6518;50.930;5.344;2023-02-11T00:27:29;6.80;99.90
12901;DHT22;6518;50.930;5.344;2023-02-11T00:29:57;6.80;99.90
12901;DHT22;6518;50.930;5.344;2023-02-11T00:32:25;6.70;99.90
12901;DHT22;6518;50.930;5.344;2023-02-11T00:34:52;6.70;99.90
12901;DHT22;6518;50.930;5.344;2023-02-11T00:37:20;6.70;99.90
12901;DHT22;6518;50.930;5.344;2023-02-11T00:39:46;6.70;99.90
12901;DHT22;6518;50.930;5.344;2023-02-11T00:42:15;6.70;99.90
12901;DHT22;6518;50.930;5.344;2023-02-11T00:44:41;6.70;99.90
12901;DHT22;6518;50.930;5.344;2023-02-11T00:47:10;6.70;99.90
12901;DHT22;6518;50.930;5.344;2023-02-11T00:49:37;6.70;99.90
12901;DHT22;6518;50.930;5.344;2023-02-11T00:52:04;6.70;99.90
12901;DHT22;6518;50.930;5.344;2023-02-11T00:54:31;6.70;99.90
12901;DHT22;6518;50.930;5.344;2023-02-11T00:56:58;6.80;99.90
12901;DHT22;6518;50.930;5.344;2023-02-11T00:59:25;6.70;99.90
12901;DHT22;6518;50.930;5.344;2023-02-11T01:01:52;6.80;99.90
12901;DHT22;6518;50.930;5.344;2023-02-11T01:04:20;6.80;99.90
12901;DHT22;6518;50.930;5.344;2023-02-11T01:06:47;6.80;99.90
12901;DHT22;6518;50.930;5.344;2023-02-11T01:09:14;6.80;99.90
12901;DHT22;6518;50.930;5.344;2023-02-11T01:11:41;6.80;99.90
12901;DHT22;6518;50.930;5.344;2023-02-11T01:14:08;6.80;99.90
12901;DHT22;6518;50.930;5.344;2023-02-11T01:16:35;6.80;99.90
12901;DHT22;6518;50.930;5.344;2023-02-11T01:19:02;6.80;99.90
12901;DHT22;6518;50.930;5.344;2023-02-11T01:21:30;6.80;99.90
12901;DHT22;6518;50.930;5.344;2023-02-11T01:23:57;6.90;99.90
12901;DHT22;6518;50.930;5.344;2023-02-11T01:26:24;6.90;99.90
12901;DHT22;6518;50.930;5.344;2023-02-11T01:28:50;6.90;99.90
12901;DHT22;6518;50.930;5.344;2023-02-11T01:31:17;6.90;99.90
12901;DHT22;6518;50.930;5.344;2023-02-11T01:33:44;6.90;99.90
12901;DHT22;6518;50.930;5.344;2023-02-11T01:36:11;6.90;99.90
12901;DHT22;6518;50.930;5.344;2023-02-11T01:38:39;6.90;99.90
12901;DHT22;6518;50.930;5.344;2023-02-11T01:41:08;6.80;99.90
12901;DHT22;6518;50.930;5.344;2023-02-11T01:43:38;6.80;99.90
12901;DHT22;6518;50.930;5.344;2023-02-11T01:46:22;6.80;99.90
12901;DHT22;6518;50.930;5.344;2023-02-11T01:48:54;6.80;99.90
12901;DHT22;6518;50.930;5.344;2023-02-11T01:51:25;6.80;99.90
12901;DHT22;6518;50.930;5.344;2023-02-11T01:53:56;6.80;99.90
12901;DHT22;6518;50.930;5.344;2023-02-11T01:56:46;6.80;99.90
12901;DHT22;6518;50.930;5.344;2023-02-11T01:59:38;6.80;99.90
12901;DHT22;6518;50.930;5.344;2023-02-11T02:02:10;6.80;99.90
12901;DHT22;6518;50.930;5.344;2023-02-11T02:04:42;6.80;99.90
12901;DHT22;6518;50.930;5.344;2023-02-11T02:07:12;6.70;99.90
12901;DHT22;6518;50.930;5.344;2023-02-11T02:09:47;6.80;99.90
12901;DHT22;6518;50.930;5.344;2023-02-11T02:12:15;6.80;99.90
12901;DHT22;6518;50.930;5.344;2023-02-11T02:14:42;6.80;99.90
12901;DHT22;6518;50.930;5.344;2023-02-11T02:17:12;6.80;99.90
12901;DHT22;6518;50.930;5.344;2023-02-11T02:20:10;6.80;99.90
12901;DHT22;6518;50.930;5.344;2023-02-11T02:23:03;6.80;99.90
12901;DHT22;6518;50.930;5.344;2023-02-11T02:25:52;6.90;99.90
12901;DHT22;6518;50.930;5.344;2023-02-11T02:28:41;6.80;99.90
12901;DHT22;6518;50.930;5.344;2023-02-11T02:31:30;6.80;99.90
12901;DHT22;6518;50.930;5.344;2023-02-11T02:34:05;6.80;99.90
12901;DHT22;6518;50.930;5.344;2023-02-11T02:36:39;6.80;99.90
12901;DHT22;6518;50.930;5.344;2023-02-11T02:39:12;6.80;99.90
12901;DHT22;6518;50.930;5.344;2023-02-11T02:41:40;6.80;99.90
12901;DHT22;6518;50.930;5.344;2023-02-11T02:44:08;6.80;99.90
12901;DHT22;6518;50.930;5.344;2023-02-11T02:46:35;6.80;99.90
12901;DHT22;6518;50.930;5.344;2023-02-11T02:49:08;6.80;99.90
12901;DHT22;6518;50.930;5.344;2023-02-11T02:51:57;6.80;99.90
12901;DHT22;6518;50.930;5.344;2023-02-11T02:58:16;6.80;99.90
12901;DHT22;6518;50.930;5.344;2023-02-11T03:00:51;6.80;99.90
12901;DHT22;6518;50.930;5.344;2023-02-11T03:03:28;6.80;99.90
12901;DHT22;6518;50.930;5.344;2023-02-11T03:06:02;6.80;99.90
12901;DHT22;6518;50.930;5.344;2023-02-11T03:08:35;6.80;99.90
12901;DHT22;6518;50.930;5.344;2023-02-11T03:11:04;6.80;99.90
12901;DHT22;6518;50.930;5.344;2023-02-11T03:13:34;6.80;99.90
12901;DHT22;6518;50.930;5.344;2023-02-11T03:16:08;6.80;99.90
12901;DHT22;6518;50.930;5.344;2023-02-11T03:18:40;6.80;99.90
12901;DHT22;6518;50.930;5.344;2023-02-11T03:21:10;6.80;99.90
12901;DHT22;6518;50.930;5.344;2023-02-11T03:23:41;6.70;99.90
12901;DHT22;6518;50.930;5.344;2023-02-11T03:26:15;6.70;99.90
12901;DHT22;6518;50.930;5.344;2023-02-11T03:28:48;6.70;99.90
12901;DHT22;6518;50.930;5.344;2023-02-11T03:31:20;6.70;99.90
12901;DHT22;6518;50.930;5.344;2023-02-11T03:33:55;6.70;99.90
12901;DHT22;6518;50.930;5.344;2023-02-11T03:36:29;6.80;99.90
12901;DHT22;6518;50.930;5.344;2023-02-11T03:38:59;6.80;99.90
12901;DHT22;6518;50.930;5.344;2023-02-11T03:41:27;6.80;99.90
12901;DHT22;6518;50.930;5.344;2023-02-11T03:43:57;6.80;99.90
12901;DHT22;6518;50.930;5.344;2023-02-11T03:46:29;6.80;99.90
12901;DHT22;6518;50.930;5.344;2023-02-11T03:49:01;6.90;99.90
12901;DHT22;6518;50.930;5.344;2023-02-11T03:51:30;6.90;99.90
12901;DHT22;6518;50.930;5.344;2023-02-11T03:54:00;6.90;99.90
12901;DHT22;6518;50.930;5.344;2023-02-11T03:56:32;6.80;99.90
12901;DHT22;6518;50.930;5.344;2023-02-11T03:59:00;6.80;99.90
12901;DHT22;6518;50.930;5.344;2023-02-11T04:01:27;6.80;99.90
12901;DHT22;6518;50.930;5.344;2023-02-11T04:03:54;6.80;99.90
12901;DHT22;6518;50.930;5.344;2023-02-11T04:06:20;6.80;99.90
12901;DHT22;6518;50.930;5.344;2023-02-11T04:08:49;6.80;99.90
12901;DHT22;6518;50.930;5.344;2023-02-11T04:11:16;6.70;99.90
12901;DHT22;6518;50.930;5.344;2023-02-11T04:13:43;6.70;99.90
12901;DHT22;6518;50.930;5.344;2023-02-11T04:16:09;6.70;99.90
12901;DHT22;6518;50.930;5.344;2023-02-11T04:18:36;6.70;99.90
12901;DHT22;6518;50.930;5.344;2023-02-11T04:21:04;6.70;99.90
12901;DHT22;6518;50.930;5.344;2023-02-11T04:23:30;6.70;99.90
12901;DHT22;6518;50.930;5.344;2023-02-11T04:25:59;6.80;99.90
12901;DHT22;6518;50.930;5.344;2023-02-11T04:28:26;6.80;99.90
12901;DHT22;6518;50.930;5.344;2023-02-11T04:30:54;6.80;99.90
12901;DHT22;6518;50.930;5.344;2023-02-11T04:33:21;6.80;99.90
12901;DHT22;6518;50.930;5.344;2023-02-11T04:35:48;6.80;99.90
12901;DHT22;6518;50.930;5.344;2023-02-11T04:38:15;6.80;99.90
12901;DHT22;6518;50.930;5.344;2023-02-11T04:40:42;6.80;99.90
12901;DHT22;6518;50.930;5.344;2023-02-11T04:43:10;6.90;99.90
12901;DHT22;6518;50.930;5.344;2023-02-11T04:45:37;6.90;99.90
12901;DHT22;6518;50.930;5.344;2023-02-11T04:48:04;6.80;99.90
12901;DHT22;6518;50.930;5.344;2023-02-11T04:50:31;6.80;99.90
12901;DHT22;6518;50.930;5.344;2023-02-11T04:52:58;6.80;99.90
12901;DHT22;6518;50.930;5.344;2023-02-11T04:55:25;6.80;99.90
12901;DHT22;6518;50.930;5.344;2023-02-11T04:57:52;6.80;99.90
12901;DHT22;6518;50.930;5.344;2023-02-11T05:00:21;6.80;99.90
12901;DHT22;6518;50.930;5.344;2023-02-11T05:02:48;6.80;99.90
12901;DHT22;6518;50.930;5.344;2023-02-11T05:05:15;6.70;99.90
12901;DHT22;6518;50.930;5.344;2023-02-11T05:07:42;6.80;99.90
12901;DHT22;6518;50.930;5.344;2023-02-11T05:10:08;6.80;99.90
12901;DHT22;6518;50.930;5.344;2023-02-11T05:12:35;6.80;99.90
12901;DHT22;6518;50.930;5.344;2023-02-11T05:15:02;6.80;99.90
12901;DHT22;6518;50.930;5.344;2023-02-11T05:17:31;6.80;99.90
12901;DHT22;6518;50.930;5.344;2023-02-11T05:19:57;6.80;99.90
12901;DHT22;6518;50.930;5.344;2023-02-11T05:22:24;6.80;99.90
12901;DHT22;6518;50.930;5.344;2023-02-11T05:24:51;6.90;99.90
12901;DHT22;6518;50.930;5.344;2023-02-11T05:27:18;6.90;99.90
12901;DHT22;6518;50.930;5.344;2023-02-11T05:29:45;6.90;99.90
12901;DHT22;6518;50.930;5.344;2023-02-11T05:32:12;6.90;99.90
12901;DHT22;6518;50.930;5.344;2023-02-11T05:34:40;6.90;99.90
12901;DHT22;6518;50.930;5.344;2023-02-11T05:37:07;6.90;99.90
12901;DHT22;6518;50.930;5.344;2023-02-11T05:39:34;6.90;99.90
12901;DHT22;6518;50.930;5.344;2023-02-11T05:42:00;6.90;99.90
12901;DHT22;6518;50.930;5.344;2023-02-11T05:44:27;6.90;99.90
12901;DHT22;6518;50.930;5.344;2023-02-11T05:46:54;6.90;99.90
12901;DHT22;6518;50.930;5.344;2023-02-11T05:49:21;6.90;99.90
12901;DHT22;6518;50.930;5.344;2023-02-11T05:51:49;6.80;99.90
12901;DHT22;6518;50.930;5.344;2023-02-11T05:54:16;6.80;99.90
12901;DHT22;6518;50.930;5.344;2023-02-11T05:56:43;6.80;99.90
12901;DHT22;6518;50.930;5.344;2023-02-11T05:59:11;6.80;99.90
12901;DHT22;6518;50.930;5.344;2023-02-11T06:01:38;6.80;99.90
12901;DHT22;6518;50.930;5.344;2023-02-11T06:04:05;6.80;99.90
12901;DHT22;6518;50.930;5.344;2023-02-11T06:06:32;6.90;99.90
12901;DHT22;6518;50.930;5.344;2023-02-11T06:09:00;6.90;99.90
12901;DHT22;6518;50.930;5.344;2023-02-11T06:11:27;6.90;99.90
12901;DHT22;6518;50.930;5.344;2023-02-11T06:13:54;6.80;99.90
12901;DHT22;6518;50.930;5.344;2023-02-11T06:16:20;6.80;99.90
12901;DHT22;6518;50.930;5.344;2023-02-11T06:18:47;6.80;99.90
12901;DHT22;6518;50.930;5.344;2023-02-11T06:21:14;6.80;99.90
12901;DHT22;6518;50.930;5.344;2023-02-11T06:23:41;6.80;99.90
12901;DHT22;6518;50.930;5.344;2023-02-11T06:26:15;6.80;99.90
12901;DHT22;6518;50.930;5.344;2023-02-11T06:28:42;6.80;99.90
12901;DHT22;6518;50.930;5.344;2023-02-11T06:31:09;6.80;99.90
12901;DHT22;6518;50.930;5.344;2023-02-11T06:33:36;6.80;99.90
12901;DHT22;6518;50.930;5.344;2023-02-11T06:36:10;6.80;99.90
12901;DHT22;6518;50.930;5.344;2023-02-11T06:38:37;6.90;99.90
12901;DHT22;6518;50.930;5.344;2023-02-11T06:41:04;6.80;99.90
12901;DHT22;6518;50.930;5.344;2023-02-11T06:43:32;6.80;99.90
12901;DHT22;6518;50.930;5.344;2023-02-11T06:45:59;6.80;99.90
12901;DHT22;6518;50.930;5.344;2023-02-11T06:48:26;6.80;99.90
12901;DHT22;6518;50.930;5.344;2023-02-11T06:50:53;6.80;99.90
12901;DHT22;6518;50.930;5.344;2023-02-11T06:53:20;6.90;99.90
12901;DHT22;6518;50.930;5.344;2023-02-11T06:55:48;6.90;99.90
12901;DHT22;6518;50.930;5.344;2023-02-11T06:58:14;6.90;99.90
12901;DHT22;6518;50.930;5.344;2023-02-11T07:00:43;6.90;99.90
12901;DHT22;6518;50.930;5.344;2023-02-11T07:03:09;6.90;99.90
12901;DHT22;6518;50.930;5.344;2023-02-11T07:05:36;6.90;99.90
12901;DHT22;6518;50.930;5.344;2023-02-11T07:08:04;7.00;99.90
12901;DHT22;6518;50.930;5.344;2023-02-11T07:10:30;7.00;99.90
12901;DHT22;6518;50.930;5.344;2023-02-11T07:12:59;6.90;99.90
12901;DHT22;6518;50.930;5.344;2023-02-11T07:15:26;6.90;99.90
12901;DHT22;6518;50.930;5.344;2023-02-11T07:17:54;6.90;99.90
12901;DHT22;6518;50.930;5.344;2023-02-11T07:20:21;6.90;99.90
12901;DHT22;6518;50.930;5.344;2023-02-11T07:22:47;7.00;99.90
12901;DHT22;6518;50.930;5.344;2023-02-11T07:25:15;7.00;99.90
12901;DHT22;6518;50.930;5.344;2023-02-11T07:27:41;7.00;99.90
12901;DHT22;6518;50.930;5.344;2023-02-11T07:30:10;7.00;99.90
12901;DHT22;6518;50.930;5.344;2023-02-11T07:32:37;7.00;99.90
12901;DHT22;6518;50.930;5.344;2023-02-11T07:35:05;7.00;99.90
12901;DHT22;6518;50.930;5.344;2023-02-11T07:37:32;7.00;99.90
12901;DHT22;6518;50.930;5.344;2023-02-11T07:39:59;7.00;99.90
12901;DHT22;6518;50.930;5.344;2023-02-11T07:42:26;7.00;99.90
12901;DHT22;6518;50.930;5.344;2023-02-11T07:44:53;7.00;99.90
12901;DHT22;6518;50.930;5.344;2023-02-11T07:47:20;7.10;99.90
12901;DHT22;6518;50.930;5.344;2023-02-11T07:49:47;7.10;99.90
12901;DHT22;6518;50.930;5.344;2023-02-11T07:52:15;7.10;99.90
12901;DHT22;6518;50.930;5.344;2023-02-11T07:54:42;7.10;99.90
12901;DHT22;6518;50.930;5.344;2023-02-11T07:57:08;7.10;99.90
12901;DHT22;6518;50.930;5.344;2023-02-11T07:59:36;7.10;99.90
12901;DHT22;6518;50.930;5.344;2023-02-11T08:02:02;7.10;99.90
12901;DHT22;6518;50.930;5.344;2023-02-11T08:04:29;7.10;99.90
12901;DHT22;6518;50.930;5.344;2023-02-11T08:06:56;7.10;99.90
12901;DHT22;6518;50.930;5.344;2023-02-11T08:09:24;7.10;99.90
12901;DHT22;6518;50.930;5.344;2023-02-11T08:11:51;7.10;99.90
12901;DHT22;6518;50.930;5.344;2023-02-11T08:14:18;7.10;99.90
12901;DHT22;6518;50.930;5.344;2023-02-11T08:16:45;7.10;99.90
12901;DHT22;6518;50.930;5.344;2023-02-11T08:19:14;7.10;99.90
12901;DHT22;6518;50.930;5.344;2023-02-11T08:21:43;7.10;99.90
12901;DHT22;6518;50.930;5.344;2023-02-11T08:24:11;7.10;99.90
12901;DHT22;6518;50.930;5.344;2023-02-11T08:26:40;7.20;99.90
12901;DHT22;6518;50.930;5.344;2023-02-11T08:29:10;7.20;99.90
12901;DHT22;6518;50.930;5.344;2023-02-11T08:31:40;7.20;99.90
12901;DHT22;6518;50.930;5.344;2023-02-11T08:34:07;7.20;99.90
12901;DHT22;6518;50.930;5.344;2023-02-11T08:36:37;7.20;99.90
12901;DHT22;6518;50.930;5.344;2023-02-11T08:39:06;7.20;99.90
12901;DHT22;6518;50.930;5.344;2023-02-11T08:41:34;7.20;99.90
12901;DHT22;6518;50.930;5.344;2023-02-11T08:44:02;7.30;99.90
12901;DHT22;6518;50.930;5.344;2023-02-11T08:46:29;7.30;99.90
12901;DHT22;6518;50.930;5.344;2023-02-11T08:48:56;7.30;99.90
12901;DHT22;6518;50.930;5.344;2023-02-11T08:51:25;7.30;99.90
12901;DHT22;6518;50.930;5.344;2023-02-11T08:53:53;7.40;99.90
12901;DHT22;6518;50.930;5.344;2023-02-11T08:56:21;7.40;99.90
12901;DHT22;6518;50.930;5.344;2023-02-11T08:58:49;7.40;99.90
12901;DHT22;6518;50.930;5.344;2023-02-11T09:01:19;7.40;99.90
12901;DHT22;6518;50.930;5.344;2023-02-11T09:03:47;7.50;99.90
12901;DHT22;6518;50.930;5.344;2023-02-11T09:06:14;7.50;99.90
12901;DHT22;6518;50.930;5.344;2023-02-11T09:08:44;7.40;99.90
12901;DHT22;6518;50.930;5.344;2023-02-11T09:11:11;7.40;99.90
12901;DHT22;6518;50.930;5.344;2023-02-11T09:13:40;7.40;99.90
12901;DHT22;6518;50.930;5.344;2023-02-11T09:16:08;7.50;99.90
12901;DHT22;6518;50.930;5.344;2023-02-11T09:18:42;7.50;99.90
12901;DHT22;6518;50.930;5.344;2023-02-11T09:21:13;7.50;99.90
12901;DHT22;6518;50.930;5.344;2023-02-11T09:23:40;7.50;99.90
12901;DHT22;6518;50.930;5.344;2023-02-11T09:26:13;7.60;99.90
12901;DHT22;6518;50.930;5.344;2023-02-11T09:28:40;7.60;99.90
12901;DHT22;6518;50.930;5.344;2023-02-11T09:31:09;7.60;99.90
12901;DHT22;6518;50.930;5.344;2023-02-11T09:33:37;7.50;99.90
12901;DHT22;6518;50.930;5.344;2023-02-11T09:36:08;7.50;99.90
12901;DHT22;6518;50.930;5.344;2023-02-11T09:38:35;7.50;99.90
12901;DHT22;6518;50.930;5.344;2023-02-11T09:41:03;7.50;99.90
12901;DHT22;6518;50.930;5.344;2023-02-11T09:43:35;7.50;99.90
12901;DHT22;6518;50.930;5.344;2023-02-11T09:46:05;7.50;99.90
12901;DHT22;6518;50.930;5.344;2023-02-11T09:48:38;7.60;99.90
12901;DHT22;6518;50.930;5.344;2023-02-11T09:51:14;7.60;99.90
12901;DHT22;6518;50.930;5.344;2023-02-11T09:53:42;7.60;99.90
12901;DHT22;6518;50.930;5.344;2023-02-11T09:56:11;7.60;99.90
12901;DHT22;6518;50.930;5.344;2023-02-11T09:58:39;7.60;99.90
12901;DHT22;6518;50.930;5.344;2023-02-11T10:01:12;7.60;99.90
12901;DHT22;6518;50.930;5.344;2023-02-11T10:04:03;7.70;99.90
12901;DHT22;6518;50.930;5.344;2023-02-11T10:06:39;7.70;99.90
12901;DHT22;6518;50.930;5.344;2023-02-11T10:09:26;7.70;99.90
12901;DHT22;6518;50.930;5.344;2023-02-11T10:12:03;7.70;99.90
12901;DHT22;6518;50.930;5.344;2023-02-11T10:14:52;7.70;99.90
12901;DHT22;6518;50.930;5.344;2023-02-11T10:17:29;7.80;99.90
12901;DHT22;6518;50.930;5.344;2023-02-11T10:20:09;7.80;99.90
12901;DHT22;6518;50.930;5.344;2023-02-11T10:22:42;7.80;99.90
12901;DHT22;6518;50.930;5.344;2023-02-11T10:25:19;7.80;99.90
12901;DHT22;6518;50.930;5.344;2023-02-11T10:27:47;7.80;99.90
12901;DHT22;6518;50.930;5.344;2023-02-11T10:30:21;7.90;99.90
12901;DHT22;6518;50.930;5.344;2023-02-11T10:32:52;7.90;99.90
12901;DHT22;6518;50.930;5.344;2023-02-11T10:35:21;7.90;99.90
12901;DHT22;6518;50.930;5.344;2023-02-11T10:37:50;7.90;99.90
12901;DHT22;6518;50.930;5.344;2023-02-11T10:40:19;7.90;99.90
12901;DHT22;6518;50.930;5.344;2023-02-11T10:42:48;8.00;99.90
12901;DHT22;6518;50.930;5.344;2023-02-11T10:45:21;8.00;99.90
12901;DHT22;6518;50.930;5.344;2023-02-11T10:47:49;8.00;99.90
12901;DHT22;6518;50.930;5.344;2023-02-11T10:50:18;8.00;99.90
12901;DHT22;6518;50.930;5.344;2023-02-11T10:52:46;8.00;99.90
12901;DHT22;6518;50.930;5.344;2023-02-11T10:55:16;8.00;99.90
12901;DHT22;6518;50.930;5.344;2023-02-11T10:57:51;8.00;99.90
12901;DHT22;6518;50.930;5.344;2023-02-11T11:00:25;8.00;99.90
12901;DHT22;6518;50.930;5.344;2023-02-11T11:02:54;8.00;99.90
12901;DHT22;6518;50.930;5.344;2023-02-11T11:05:28;8.00;99.90
12901;DHT22;6518;50.930;5.344;2023-02-11T11:07:59;8.00;99.90
12901;DHT22;6518;50.930;5.344;2023-02-11T11:10:36;8.00;99.90
12901;DHT22;6518;50.930;5.344;2023-02-11T11:13:23;8.00;99.90
12901;DHT22;6518;50.930;5.344;2023-02-11T11:16:14;8.10;99.90
12901;DHT22;6518;50.930;5.344;2023-02-11T11:18:43;8.00;99.90
12901;DHT22;6518;50.930;5.344;2023-02-11T11:21:13;8.10;99.90
12901;DHT22;6518;50.930;5.344;2023-02-11T11:23:47;8.10;99.90
12901;DHT22;6518;50.930;5.344;2023-02-11T11:26:17;8.10;99.90
12901;DHT22;6518;50.930;5.344;2023-02-11T11:28:52;8.10;99.90
12901;DHT22;6518;50.930;5.344;2023-02-11T11:31:23;8.10;99.90
12901;DHT22;6518;50.930;5.344;2023-02-11T11:33:52;8.10;99.90
12901;DHT22;6518;50.930;5.344;2023-02-11T11:36:22;8.10;99.90
12901;DHT22;6518;50.930;5.344;2023-02-11T11:38:53;8.10;99.90
12901;DHT22;6518;50.930;5.344;2023-02-11T11:41:27;8.10;99.90
12901;DHT22;6518;50.930;5.344;2023-02-11T11:44:00;8.10;99.90
12901;DHT22;6518;50.930;5.344;2023-02-11T11:46:31;8.10;99.90
12901;DHT22;6518;50.930;5.344;2023-02-11T11:49:16;8.10;99.90
12901;DHT22;6518;50.930;5.344;2023-02-11T11:51:53;8.10;99.90
12901;DHT22;6518;50.930;5.344;2023-02-11T11:54:22;8.20;99.90
12901;DHT22;6518;50.930;5.344;2023-02-11T11:56:55;8.20;99.90
12901;DHT22;6518;50.930;5.344;2023-02-11T11:59:23;8.30;99.90
12901;DHT22;6518;50.930;5.344;2023-02-11T12:02:05;8.30;99.90
12901;DHT22;6518;50.930;5.344;2023-02-11T12:04:55;8.30;99.90
12901;DHT22;6518;50.930;5.344;2023-02-11T12:07:33;8.40;99.90
12901;DHT22;6518;50.930;5.344;2023-02-11T12:10:21;8.40;99.90
12901;DHT22;6518;50.930;5.344;2023-02-11T12:12:57;8.40;99.90
12901;DHT22;6518;50.930;5.344;2023-02-11T12:15:31;8.40;99.90
12901;DHT22;6518;50.930;5.344;2023-02-11T12:18:14;8.50;99.90
12901;DHT22;6518;50.930;5.344;2023-02-11T12:20:54;8.40;99.90
12901;DHT22;6518;50.930;5.344;2023-02-11T12:23:41;8.40;99.90
12901;DHT22;6518;50.930;5.344;2023-02-11T12:26:13;8.50;99.90
12901;DHT22;6518;50.930;5.344;2023-02-11T12:28:57;8.40;99.90
12901;DHT22;6518;50.930;5.344;2023-02-11T12:31:39;8.40;99.90
12901;DHT22;6518;50.930;5.344;2023-02-11T12:34:34;8.40;99.90
12901;DHT22;6518;50.930;5.344;2023-02-11T12:37:16;8.40;99.90
12901;DHT22;6518;50.930;5.344;2023-02-11T12:39:49;8.40;99.90
12901;DHT22;6518;50.930;5.344;2023-02-11T12:42:42;8.50;99.90
12901;DHT22;6518;50.930;5.344;2023-02-11T12:45:48;8.50;99.90
12901;DHT22;6518;50.930;5.344;2023-02-11T12:48:36;8.50;99.90
12901;DHT22;6518;50.930;5.344;2023-02-11T12:51:15;8.50;99.90
12901;DHT22;6518;50.930;5.344;2023-02-11T12:54:13;8.50;99.90
12901;DHT22;6518;50.930;5.344;2023-02-11T12:56:44;8.50;99.90
12901;DHT22;6518;50.930;5.344;2023-02-11T12:59:19;8.50;99.90
12901;DHT22;6518;50.930;5.344;2023-02-11T13:01:51;8.60;99.90
12901;DHT22;6518;50.930;5.344;2023-02-11T13:04:21;8.60;99.90
12901;DHT22;6518;50.930;5.344;2023-02-11T13:06:52;8.50;99.90
12901;DHT22;6518;50.930;5.344;2023-02-11T13:09:24;8.60;99.90
12901;DHT22;6518;50.930;5.344;2023-02-11T13:11:54;8.60;99.90
12901;DHT22;6518;50.930;5.344;2023-02-11T13:14:26;8.60;99.90
12901;DHT22;6518;50.930;5.344;2023-02-11T13:16:56;8.60;99.90
12901;DHT22;6518;50.930;5.344;2023-02-11T13:19:28;8.60;99.90
12901;DHT22;6518;50.930;5.344;2023-02-11T13:22:04;8.60;99.90
12901;DHT22;6518;50.930;5.344;2023-02-11T13:24:40;8.90;99.90
12901;DHT22;6518;50.930;5.344;2023-02-11T13:27:19;8.70;99.90
12901;DHT22;6518;50.930;5.344;2023-02-11T13:33:13;8.70;99.90
12901;DHT22;6518;50.930;5.344;2023-02-11T13:35:45;8.70;99.90
12901;DHT22;6518;50.930;5.344;2023-02-11T13:38:18;8.70;99.90
12901;DHT22;6518;50.930;5.344;2023-02-11T13:40:59;8.60;99.90
12901;DHT22;6518;50.930;5.344;2023-02-11T13:43:27;8.70;99.90
12901;DHT22;6518;50.930;5.344;2023-02-11T13:45:57;8.60;99.90
12901;DHT22;6518;50.930;5.344;2023-02-11T13:48:28;8.70;99.90
12901;DHT22;6518;50.930;5.344;2023-02-11T13:50:58;8.70;99.90
12901;DHT22;6518;50.930;5.344;2023-02-11T13:53:26;8.70;99.90
12901;DHT22;6518;50.930;5.344;2023-02-11T13:56:04;8.70;99.90
12901;DHT22;6518;50.930;5.344;2023-02-11T13:58:37;8.80;99.90
12901;DHT22;6518;50.930;5.344;2023-02-11T14:01:39;8.80;99.90
12901;DHT22;6518;50.930;5.344;2023-02-11T14:04:21;8.80;99.90
12901;DHT22;6518;50.930;5.344;2023-02-11T14:07:25;8.80;99.90
12901;DHT22;6518;50.930;5.344;2023-02-11T14:13:21;8.80;99.90
12901;DHT22;6518;50.930;5.344;2023-02-11T14:15:48;8.80;99.90
12901;DHT22;6518;50.930;5.344;2023-02-11T14:18:57;8.80;99.90
12901;DHT22;6518;50.930;5.344;2023-02-11T14:21:33;8.80;99.90
12901;DHT22;6518;50.930;5.344;2023-02-11T14:27:04;8.80;99.90
12901;DHT22;6518;50.930;5.344;2023-02-11T14:29:36;8.80;99.90
12901;DHT22;6518;50.930;5.344;2023-02-11T14:32:08;8.80;99.90
12901;DHT22;6518;50.930;5.344;2023-02-11T14:34:45;8.80;99.90
12901;DHT22;6518;50.930;5.344;2023-02-11T14:37:26;8.80;99.90
12901;DHT22;6518;50.930;5.344;2023-02-11T14:40:04;8.90;99.90
12901;DHT22;6518;50.930;5.344;2023-02-11T14:42:36;8.90;99.90
12901;DHT22;6518;50.930;5.344;2023-02-11T14:45:06;8.90;99.90
12901;DHT22;6518;50.930;5.344;2023-02-11T14:47:39;8.90;99.90
12901;DHT22;6518;50.930;5.344;2023-02-11T14:50:16;8.90;99.90
12901;DHT22;6518;50.930;5.344;2023-02-11T14:52:46;8.90;99.90
12901;DHT22;6518;50.930;5.344;2023-02-11T14:55:26;8.90;99.90
12901;DHT22;6518;50.930;5.344;2023-02-11T14:58:14;8.90;99.90
12901;DHT22;6518;50.930;5.344;2023-02-11T15:00:50;8.90;99.90
12901;DHT22;6518;50.930;5.344;2023-02-11T15:03:25;8.90;99.90
12901;DHT22;6518;50.930;5.344;2023-02-11T15:05:54;8.90;99.90
12901;DHT22;6518;50.930;5.344;2023-02-11T15:08:23;8.90;99.90
12901;DHT22;6518;50.930;5.344;2023-02-11T15:10:52;8.90;99.90
12901;DHT22;6518;50.930;5.344;2023-02-11T15:13:21;8.90;99.90
12901;DHT22;6518;50.930;5.344;2023-02-11T15:15:54;8.90;99.90
12901;DHT22;6518;50.930;5.344;2023-02-11T15:18:24;8.90;99.90
12901;DHT22;6518;50.930;5.344;2023-02-11T15:20:53;8.90;99.90
12901;DHT22;6518;50.930;5.344;2023-02-11T15:23:24;8.90;99.90
12901;DHT22;6518;50.930;5.344;2023-02-11T15:25:51;8.90;99.90
12901;DHT22;6518;50.930;5.344;2023-02-11T15:28:22;9.00;99.90
12901;DHT22;6518;50.930;5.344;2023-02-11T15:30:57;9.00;99.90
12901;DHT22;6518;50.930;5.344;2023-02-11T15:33:24;9.00;99.90
12901;DHT22;6518;50.930;5.344;2023-02-11T15:35:50;9.00;99.90
12901;DHT22;6518;50.930;5.344;2023-02-11T15:38:17;9.00;99.90
12901;DHT22;6518;50.930;5.344;2023-02-11T15:40:53;9.00;99.90
12901;DHT22;6518;50.930;5.344;2023-02-11T15:43:20;9.00;99.90
12901;DHT22;6518;50.930;5.344;2023-02-11T15:45:57;9.00;99.90
12901;DHT22;6518;50.930;5.344;2023-02-11T15:48:32;9.00;99.90
12901;DHT22;6518;50.930;5.344;2023-02-11T15:51:02;9.00;99.90
12901;DHT22;6518;50.930;5.344;2023-02-11T15:53:33;9.00;99.90
12901;DHT22;6518;50.930;5.344;2023-02-11T15:56:09;9.00;99.90
12901;DHT22;6518;50.930;5.344;2023-02-11T15:58:38;9.00;99.90
12901;DHT22;6518;50.930;5.344;2023-02-11T16:01:06;9.00;99.90
12901;DHT22;6518;50.930;5.344;2023-02-11T16:03:34;9.00;99.90
12901;DHT22;6518;50.930;5.344;2023-02-11T16:06:16;9.00;99.90
12901;DHT22;6518;50.930;5.344;2023-02-11T16:08:58;9.00;99.90
12901;DHT22;6518;50.930;5.344;2023-02-11T16:11:29;9.00;99.90
12901;DHT22;6518;50.930;5.344;2023-02-11T16:13:56;9.00;99.90
12901;DHT22;6518;50.930;5.344;2023-02-11T16:16:27;9.00;99.90
12901;DHT22;6518;50.930;5.344;2023-02-11T16:18:56;9.00;99.90
12901;DHT22;6518;50.930;5.344;2023-02-11T16:21:28;9.00;99.90
12901;DHT22;6518;50.930;5.344;2023-02-11T16:23:58;9.00;99.90
12901;DHT22;6518;50.930;5.344;2023-02-11T16:26:30;9.00;99.90
12901;DHT22;6518;50.930;5.344;2023-02-11T16:29:06;9.00;99.90
12901;DHT22;6518;50.930;5.344;2023-02-11T16:31:35;9.00;99.90
12901;DHT22;6518;50.930;5.344;2023-02-11T16:34:10;9.00;99.90
12901;DHT22;6518;50.930;5.344;2023-02-11T16:36:37;8.90;99.90
12901;DHT22;6518;50.930;5.344;2023-02-11T16:39:04;8.90;99.90
12901;DHT22;6518;50.930;5.344;2023-02-11T16:41:32;8.90;99.90